Time;durP1;ratioP1;P1;durP2;ratioP2;P2;SDS_P1;SDS_P2;PMS_P1;PMS_P2;Temp;Humidity;BMP_temperature;BMP_pressure;BME280_temperature;BME280_humidity;BME280_pressure;Samples;Min_cycle;Max_cycle;Signal;HPM_P1;HPM_P2
2022/04/25 06:45:27;;;;;;;5.70;2.43;;;19.20;45.40;;;;;;5117653;27;89179;-66
2022/04/25 06:47:55;;;;;;;4.43;2.50;;;19.40;46.30;;;;;;5096695;27;90142;-64
2022/04/25 06:50:23;;;;;;;3.97;2.40;;;19.90;46.50;;;;;;5085571;27;89063;-66
2022/04/25 06:52:51;;;;;;;3.67;2.47;;;20.40;46.30;;;;;;5080398;27;89357;-67
2022/04/25 06:55:20;;;;;;;2.27;2.10;;;20.80;46.00;;;;;;5078557;27;90116;-67
2022/04/25 06:57:48;;;;;;;5.97;3.17;;;21.10;45.70;;;;;;5086701;27;88420;-67
2022/04/25 07:00:19;;;;;;;3.00;2.73;;;21.30;45.40;;;;;;5083406;27;88662;-67
2022/04/25 07:03:05;;;;;;;3.43;2.37;;;21.50;45.20;;;;;;5078772;27;90558;-67
2022/04/25 07:05:33;;;;;;;4.27;2.43;;;21.60;45.00;;;;;;5078323;27;89452;-67
2022/04/25 07:08:01;;;;;;;5.70;2.63;;;21.60;44.80;;;;;;5079013;27;88530;-68
2022/04/25 07:10:29;;;;;;;2.97;2.20;;;21.70;44.70;;;;;;5079443;27;88487;-67
2022/04/25 07:12:57;;;;;;;3.57;2.30;;;21.70;44.60;;;;;;5078648;27;90133;-67
2022/04/25 07:15:25;;;;;;;2.87;2.03;;;21.80;44.50;;;;;;5078944;27;89485;-68
2022/04/25 07:17:55;;;;;;;2.13;1.93;;;21.90;44.50;;;;;;5078590;27;88360;-68
2022/04/25 07:20:25;;;;;;;1.80;1.37;;;21.90;44.40;;;;;;5076971;27;88528;-68
2022/04/25 07:31:09;;;;;;;3.17;1.60;;;22.10;44.30;;;;;;5078661;27;88453;-68
2022/04/25 07:33:43;;;;;;;2.13;1.87;;;22.10;44.30;;;;;;5077945;27;90786;-68
2022/04/25 07:36:12;;;;;;;4.90;2.27;;;22.20;44.30;;;;;;5077828;27;90090;-68
2022/04/25 07:38:46;;;;;;;3.20;2.03;;;22.20;44.20;;;;;;5076841;27;88471;-67
2022/04/25 07:41:14;;;;;;;3.13;1.37;;;22.20;44.20;;;;;;5078901;27;88361;-67
2022/04/25 07:43:43;;;;;;;2.63;1.80;;;22.20;44.20;;;;;;5077737;27;90685;-66
2022/04/25 07:46:12;;;;;;;3.43;1.73;;;22.20;44.20;;;;;;5078252;27;89926;-67
2022/04/25 07:48:40;;;;;;;1.73;1.23;;;22.20;44.20;;;;;;5078178;27;88243;-67
2022/04/25 07:51:08;;;;;;;3.60;1.73;;;22.30;44.30;;;;;;5075228;27;88779;-67
2022/04/25 07:53:37;;;;;;;4.50;1.33;;;22.30;44.20;;;;;;5069220;27;91057;-67
2022/04/25 07:56:06;;;;;;;1.83;1.10;;;22.30;44.30;;;;;;5068042;27;89965;-67
2022/04/25 07:58:34;;;;;;;2.30;1.70;;;22.30;44.20;;;;;;5064692;27;88407;-67
2022/04/25 08:01:02;;;;;;;1.27;1.17;;;22.40;44.20;;;;;;5064239;27;88516;-66
2022/04/25 08:03:32;;;;;;;2.63;1.37;;;22.40;44.20;;;;;;5063763;27;90633;-67
2022/04/25 08:06:01;;;;;;;1.73;1.30;;;22.40;44.20;;;;;;5063753;27;92991;-66
2022/04/25 08:08:29;;;;;;;2.20;1.30;;;22.40;44.10;;;;;;5064707;27;88462;-67
2022/04/25 08:10:58;;;;;;;1.43;1.33;;;22.50;44.20;;;;;;5061932;27;88548;-66
2022/04/25 08:18:58;;;;;;;5.70;1.40;;;22.50;44.20;;;;;;5063856;27;88404;-66
2022/04/25 08:21:26;;;;;;;1.57;1.47;;;22.50;44.20;;;;;;5064746;27;88385;-67
2022/04/25 08:23:54;;;;;;;1.90;1.43;;;22.50;44.20;;;;;;5063573;27;90645;-66
2022/04/25 08:26:25;;;;;;;2.37;1.30;;;22.40;44.10;;;;;;5063914;27;89930;-67
2022/04/25 08:28:54;;;;;;;1.27;1.10;;;22.40;44.20;;;;;;5062479;27;88622;-66
2022/04/25 08:31:31;;;;;;;1.80;1.20;;;22.40;44.10;;;;;;5056815;27;88396;-66
2022/04/25 08:33:59;;;;;;;2.30;1.50;;;22.50;44.20;;;;;;5063650;27;90481;-67
2022/04/25 08:36:27;;;;;;;1.77;1.20;;;22.40;44.10;;;;;;5063735;27;89883;-67
2022/04/25 08:38:55;;;;;;;1.80;1.50;;;22.40;44.10;;;;;;5063430;27;88429;-67
2022/04/25 08:41:26;;;;;;;1.90;1.53;;;22.40;44.10;;;;;;5063307;27;88623;-67
2022/04/25 08:43:54;;;;;;;1.60;1.20;;;22.40;44.10;;;;;;5063502;27;90182;-67
2022/04/25 08:46:22;;;;;;;2.07;1.33;;;22.40;44.10;;;;;;5062038;27;90055;-66
2022/04/25 08:48:50;;;;;;;3.23;1.20;;;22.40;44.10;;;;;;5063347;27;88416;-67
2022/04/25 08:51:22;;;;;;;2.37;1.50;;;22.40;44.00;;;;;;5062879;27;88672;-66
2022/04/25 08:53:50;;;;;;;2.50;1.30;;;22.50;44.10;;;;;;5063299;27;90611;-67
2022/04/25 08:56:19;;;;;;;1.43;1.20;;;22.40;44.00;;;;;;5063303;27;93226;-66
2022/04/25 08:58:49;;;;;;;1.20;1.10;;;22.40;44.00;;;;;;5046956;27;88394;-67
2022/04/25 09:01:17;;;;;;;1.47;1.37;;;22.50;44.10;;;;;;5073293;27;88621;-67
2022/04/25 09:03:45;;;;;;;1.30;1.20;;;22.40;44.00;;;;;;5068302;27;89319;-67
2022/04/25 09:06:13;;;;;;;1.47;1.33;;;22.40;44.00;;;;;;5062665;27;89831;-67
2022/04/25 09:08:42;;;;;;;3.33;1.70;;;22.50;44.00;;;;;;5062801;27;88192;-66
2022/04/25 09:13:57;;;;;;;1.27;0.90;;;22.50;43.90;;;;;;5063393;27;90862;-67
2022/04/25 09:16:25;;;;;;;1.37;1.20;;;22.50;43.90;;;;;;5062345;27;89860;-66
2022/04/25 09:18:53;;;;;;;1.40;1.30;;;22.50;43.90;;;;;;5063142;27;88388;-67
2022/04/25 09:21:21;;;;;;;1.23;1.13;;;22.60;44.00;;;;;;5060257;27;88592;-66
2022/04/25 09:23:49;;;;;;;1.87;1.20;;;22.60;44.00;;;;;;5062545;27;91138;-66
2022/04/25 09:26:20;;;;;;;1.20;1.10;;;22.60;44.00;;;;;;5062823;27;89941;-67
2022/04/25 09:28:49;;;;;;;1.33;1.10;;;22.60;43.90;;;;;;5062103;27;88431;-67
2022/04/25 09:31:19;;;;;;;1.30;1.10;;;22.60;43.90;;;;;;5062846;27;88552;-66
2022/04/25 09:33:47;;;;;;;1.43;1.03;;;22.60;44.60;;;;;;5063033;27;90061;-66
2022/04/25 09:36:15;;;;;;;1.13;1.00;;;22.60;43.90;;;;;;5066685;27;88731;-66
2022/04/25 09:38:44;;;;;;;1.30;1.20;;;22.60;43.90;;;;;;5062991;27;88475;-67
2022/04/25 09:41:13;;;;;;;1.20;1.10;;;22.60;43.90;;;;;;5064144;27;88614;-66
2022/04/25 09:43:42;;;;;;;6.83;1.20;;;22.60;43.90;;;;;;5082395;27;89953;-66
2022/04/25 09:46:10;;;;;;;1.10;1.00;;;22.60;43.90;;;;;;5061764;27;89486;-66
2022/04/25 09:48:43;;;;;;;1.33;1.23;;;22.60;43.80;;;;;;5057560;27;90189;-66
2022/04/25 09:51:16;;;;;;;1.20;1.10;;;22.60;43.80;;;;;;5062619;27;88460;-66
2022/04/25 09:53:45;;;;;;;1.27;1.00;;;22.60;43.80;;;;;;5062516;27;90706;-66
2022/04/25 09:56:14;;;;;;;1.73;1.07;;;22.60;43.70;;;;;;5062558;27;89941;-67
2022/04/25 09:58:43;;;;;;;1.60;1.03;;;22.60;43.70;;;;;;5062692;27;88337;-66
2022/04/25 10:01:13;;;;;;;1.47;1.30;;;22.60;43.70;;;;;;5062795;27;88749;-67
2022/04/25 10:03:43;;;;;;;1.97;1.37;;;22.60;43.70;;;;;;5061941;27;91034;-66
2022/04/25 10:06:11;;;;;;;2.67;1.20;;;22.60;43.70;;;;;;5061813;27;92769;-67
2022/04/25 10:08:40;;;;;;;1.73;1.27;;;22.60;43.70;;;;;;5062389;27;88550;-67
2022/04/25 10:11:08;;;;;;;2.97;1.10;;;22.60;43.60;;;;;;5062738;27;88609;-67
2022/04/25 10:13:36;;;;;;;2.63;1.50;;;22.60;43.60;;;;;;5062341;27;90685;-66
2022/04/25 10:16:05;;;;;;;1.23;1.10;;;22.60;43.60;;;;;;5062024;27;90031;-67
2022/04/25 10:18:33;;;;;;;1.43;1.27;;;22.60;43.50;;;;;;5062360;27;88513;-66
2022/04/25 10:21:04;;;;;;;1.50;0.93;;;22.60;43.50;;;;;;5062635;27;88495;-67
2022/04/25 10:23:32;;;;;;;1.10;0.90;;;22.60;43.50;;;;;;5061842;27;90748;-67
2022/04/25 10:26:01;;;;;;;1.67;1.20;;;22.60;43.50;;;;;;5062166;27;91829;-68
2022/04/25 10:28:30;;;;;;;1.93;1.20;;;22.60;43.50;;;;;;5062401;27;88234;-68
2022/04/25 10:31:05;;;;;;;228.87;60.77;;;22.60;43.60;;;;;;5062446;27;88366;-67
2022/04/25 10:33:50;;;;;;;280.97;66.53;;;22.70;43.70;;;;;;5062113;27;90714;-67
2022/04/25 10:36:47;;;;;;;166.07;45.63;;;22.70;43.80;;;;;;5063260;27;88838;-67
2022/04/25 10:39:16;;;;;;;138.77;42.63;;;22.80;43.90;;;;;;5059488;27;88568;-67
2022/04/25 10:45:00;;;;;;;130.67;35.43;;;22.90;44.10;;;;;;5059956;27;93324;-67
2022/04/25 10:47:29;;;;;;;93.57;28.20;;;22.80;44.00;;;;;;5059754;27;90575;-67
2022/04/25 10:50:02;;;;;;;85.50;28.77;;;22.90;44.00;;;;;;5060102;27;88361;-67
2022/04/25 10:53:05;;;;;;;72.03;26.27;;;22.80;43.90;;;;;;5060517;27;88499;-67
2022/04/25 10:55:42;;;;;;;68.70;24.37;;;22.80;43.90;;;;;;5059457;27;89492;-67
2022/04/25 10:58:14;;;;;;;57.23;21.40;;;22.80;43.80;;;;;;5049428;27;88401;-67
2022/04/25 11:00:47;;;;;;;56.77;20.87;;;22.80;43.80;;;;;;5047568;27;88551;-67
2022/04/25 11:03:16;;;;;;;58.63;20.33;;;22.80;43.80;;;;;;5039769;28;88605;-67
2022/04/25 11:05:44;;;;;;;45.33;17.20;;;22.80;43.80;;;;;;5053898;27;90117;-67
2022/04/25 11:08:28;;;;;;;58.47;16.07;;;22.80;43.80;;;;;;5079941;27;89746;-67
2022/04/25 11:11:08;;;;;;;55.97;17.37;;;22.80;43.80;;;;;;5080591;27;88345;-67
2022/04/25 11:13:48;;;;;;;51.23;16.47;;;22.70;43.60;;;;;;5072243;27;88437;-67
2022/04/25 11:16:17;;;;;;;49.47;15.83;;;22.80;43.70;;;;;;5060030;27;90674;-67
2022/04/25 11:18:45;;;;;;;39.67;14.30;;;22.70;43.60;;;;;;5059716;27;91992;-67
2022/04/25 11:21:15;;;;;;;38.60;13.07;;;22.70;43.60;;;;;;5058212;27;88276;-67
2022/04/25 11:23:50;;;;;;;37.00;11.77;;;22.70;43.60;;;;;;5059053;27;88612;-66
2022/04/25 11:26:56;;;;;;;34.80;12.53;;;22.70;43.60;;;;;;5059008;27;89770;-66
2022/04/25 11:29:24;;;;;;;30.87;11.30;;;22.70;43.60;;;;;;5059504;27;90451;-66
2022/04/25 11:31:52;;;;;;;30.10;11.17;;;22.80;43.70;;;;;;5061826;27;88408;-66
2022/04/25 11:34:23;;;;;;;20.60;8.43;;;22.80;43.90;;;;;;5063005;27;88978;-66
2022/04/25 11:36:51;;;;;;;24.83;9.73;;;22.80;44.60;;;;;;5059523;27;90066;-66
2022/04/25 11:42:07;;;;;;;25.57;9.77;;;22.80;44.10;;;;;;5059696;27;88766;-66
2022/04/25 11:44:38;;;;;;;27.07;8.90;;;22.80;44.10;;;;;;5062449;27;88612;-67
2022/04/25 11:47:07;;;;;;;19.17;8.07;;;22.80;44.10;;;;;;5051260;27;90959;-67
2022/04/25 11:49:38;;;;;;;23.93;8.00;;;22.80;44.10;;;;;;5063988;27;89356;-67
2022/04/25 11:52:07;;;;;;;27.30;8.67;;;22.80;44.10;;;;;;5064358;27;88397;-67
2022/04/25 11:54:40;;;;;;;15.37;6.33;;;22.80;44.80;;;;;;5064148;27;89638;-67
2022/04/25 11:57:08;;;;;;;19.83;7.53;;;22.80;44.10;;;;;;5063391;27;90997;-66
2022/04/25 11:59:36;;;;;;;17.33;7.07;;;22.80;44.00;;;;;;5063137;27;88972;-66
2022/04/25 12:02:04;;;;;;;15.07;5.77;;;22.80;44.00;;;;;;5063996;27;88389;-67
2022/04/25 12:04:33;;;;;;;12.63;6.17;;;22.80;44.00;;;;;;5064255;27;88452;-67
2022/04/25 12:07:02;;;;;;;11.57;5.17;;;22.80;44.00;;;;;;5063999;27;89016;-67
2022/04/25 12:17:52;;;;;;;15.53;5.07;;;22.80;44.00;;;;;;5053600;27;91024;-66
2022/04/25 12:20:28;;;;;;;12.70;4.57;;;22.80;44.00;;;;;;5063740;27;92693;-67
2022/04/25 12:22:58;;;;;;;12.33;5.10;;;22.80;44.10;;;;;;5063666;27;88455;-67
2022/04/25 12:25:28;;;;;;;11.00;5.10;;;22.80;44.00;;;;;;5043002;27;88490;-66
2022/04/25 12:28:06;;;;;;;11.03;4.43;;;22.80;44.00;;;;;;5046633;27;91091;-66
2022/04/25 12:31:05;;;;;;;11.60;4.33;;;22.80;44.00;;;;;;5054518;27;89897;-66
2022/04/25 12:33:35;;;;;;;9.37;4.13;;;22.80;44.00;;;;;;5046715;27;88660;-68
2022/04/25 12:36:11;;;;;;;10.53;4.13;;;22.80;43.90;;;;;;5046978;27;88483;-66
2022/04/25 12:38:41;;;;;;;9.53;3.77;;;22.80;43.90;;;;;;5063137;27;88622;-66
2022/04/25 12:41:11;;;;;;;10.87;3.93;;;22.80;43.90;;;;;;5063375;27;89800;-66
2022/04/25 12:43:43;;;;;;;5.43;3.10;;;22.80;43.80;;;;;;5063479;27;88442;-66
2022/04/25 12:46:16;;;;;;;6.57;3.50;;;22.80;43.90;;;;;;5063602;27;88593;-66
2022/04/25 12:49:05;;;;;;;8.40;3.10;;;22.90;43.90;;;;;;5063036;27;90745;-66
2022/04/25 12:51:38;;;;;;;8.83;3.50;;;22.80;43.80;;;;;;5062705;27;90338;-66
2022/04/25 12:54:06;;;;;;;5.77;2.60;;;22.80;43.70;;;;;;5054264;27;88577;-66
2022/04/25 12:56:35;;;;;;;6.40;3.13;;;22.70;43.60;;;;;;5062833;27;88598;-67
2022/04/25 12:59:05;;;;;;;4.87;2.60;;;22.70;43.60;;;;;;5050824;27;90199;-66
2022/04/25 13:01:35;;;;;;;6.63;3.37;;;22.80;43.60;;;;;;5050552;27;90067;-66
2022/04/25 13:04:12;;;;;;;4.13;2.67;;;22.80;43.50;;;;;;5062754;27;88369;-66
2022/04/25 13:06:41;;;;;;;3.80;2.73;;;22.80;43.50;;;;;;5062954;27;88386;-67
2022/04/25 13:09:09;;;;;;;4.23;2.63;;;22.80;43.40;;;;;;5062492;27;90031;-66
2022/04/25 13:11:52;;;;;;;3.20;2.33;;;22.80;43.40;;;;;;5062391;27;90328;-66
2022/04/25 13:14:21;;;;;;;6.93;2.63;;;22.80;43.30;;;;;;5062585;27;88369;-66
2022/04/25 13:16:49;;;;;;;7.53;2.93;;;22.90;43.40;;;;;;5062549;27;88539;-66
2022/04/25 13:19:18;;;;;;;2.97;1.90;;;22.90;43.30;;;;;;5062325;27;92570;-66
2022/04/25 13:21:47;;;;;;;5.30;2.20;;;22.90;43.30;;;;;;5062721;27;89669;-66
2022/04/25 13:24:15;;;;;;;4.33;2.13;;;22.90;43.30;;;;;;5062359;27;88403;-66
2022/04/25 13:26:43;;;;;;;3.07;1.97;;;22.90;43.30;;;;;;5062475;27;88489;-66
2022/04/25 13:29:11;;;;;;;6.30;2.50;;;22.90;43.30;;;;;;5061838;27;90758;-66
2022/04/25 13:31:40;;;;;;;4.03;2.17;;;22.80;43.20;;;;;;5061339;27;88548;-66
2022/04/25 13:34:08;;;;;;;3.83;2.10;;;22.80;43.20;;;;;;5062596;27;88442;-66
2022/04/25 13:36:36;;;;;;;3.20;2.40;;;22.80;43.10;;;;;;5062381;27;88399;-66
2022/04/25 13:39:04;;;;;;;4.17;2.30;;;22.80;43.10;;;;;;5061736;27;90860;-67
2022/04/25 13:41:32;;;;;;;6.57;2.30;;;22.80;43.10;;;;;;5061581;27;90216;-67
2022/04/25 13:44:04;;;;;;;7.07;2.50;;;22.80;43.10;;;;;;5062915;27;88590;-66
2022/04/25 13:46:33;;;;;;;16.00;7.27;;;22.80;43.20;;;;;;5062832;27;88487;-66
2022/04/25 13:49:10;;;;;;;11.10;6.47;;;22.90;43.40;;;;;;5040750;28;93674;-66
2022/04/25 13:51:38;;;;;;;9.17;5.47;;;22.90;43.40;;;;;;5041011;27;90318;-66
2022/04/25 13:54:06;;;;;;;9.17;5.30;;;23.00;43.50;;;;;;5040863;27;88447;-66
2022/04/25 13:56:34;;;;;;;7.77;4.80;;;23.00;43.50;;;;;;5041672;28;88550;-66
2022/04/25 13:59:02;;;;;;;6.87;4.60;;;23.00;43.50;;;;;;5044705;27;90200;-67
2022/04/25 14:01:30;;;;;;;7.63;5.13;;;22.90;43.40;;;;;;5061344;27;90108;-66
2022/04/25 14:03:59;;;;;;;8.80;5.03;;;22.90;43.40;;;;;;5060821;27;88460;-66
2022/04/25 14:06:28;;;;;;;8.37;4.33;;;22.90;44.10;;;;;;5061574;27;88463;-66
2022/04/25 14:08:57;;;;;;;6.57;4.07;;;22.90;43.40;;;;;;5061792;27;90712;-67
2022/04/25 14:11:27;;;;;;;6.93;4.30;;;22.90;43.40;;;;;;5061804;27;93095;-66
2022/04/25 14:13:55;;;;;;;4.27;3.10;;;22.90;43.30;;;;;;5062014;27;88371;-66
2022/04/25 14:16:23;;;;;;;6.93;3.40;;;22.80;43.20;;;;;;5061221;27;88504;-66
2022/04/25 14:18:51;;;;;;;4.07;3.20;;;22.80;43.10;;;;;;5061109;27;90784;-66
2022/04/25 14:21:19;;;;;;;6.77;3.97;;;22.90;43.20;;;;;;5061410;27;88873;-66
2022/04/25 14:23:49;;;;;;;6.00;3.30;;;22.80;43.10;;;;;;5061734;27;88472;-66
2022/04/25 14:26:17;;;;;;;4.83;2.90;;;22.80;43.00;;;;;;5061476;27;88471;-66
2022/04/25 14:28:46;;;;;;;4.10;3.07;;;22.80;43.00;;;;;;5060984;27;90651;-66
2022/04/25 14:31:34;;;;;;;4.87;2.70;;;22.80;43.00;;;;;;5059991;27;89411;-66
2022/04/25 14:34:02;;;;;;;4.03;3.27;;;22.80;42.90;;;;;;5060068;27;88446;-67
2022/04/25 14:36:30;;;;;;;5.10;3.40;;;22.80;43.50;;;;;;5069827;27;88711;-66
2022/04/25 14:39:00;;;;;;;4.27;2.90;;;22.80;42.90;;;;;;5061152;27;90542;-67
2022/04/25 14:41:28;;;;;;;3.80;3.23;;;22.70;42.70;;;;;;5060843;27;88997;-67
2022/04/25 14:43:57;;;;;;;3.60;2.50;;;22.70;42.70;;;;;;5061163;27;88494;-68
2022/04/25 14:46:25;;;;;;;3.23;2.30;;;22.70;42.60;;;;;;5060864;27;88397;-67
2022/04/25 14:48:54;;;;;;;6.83;3.00;;;22.80;42.60;;;;;;5060763;27;90208;-68
2022/04/25 14:54:24;;;;;;;5.20;2.87;;;22.70;42.50;;;;;;5028666;27;88656;-67
2022/04/25 14:56:53;;;;;;;2.40;2.20;;;22.70;42.40;;;;;;5066664;27;88647;-66
2022/04/25 14:59:21;;;;;;;6.33;2.13;;;22.70;42.30;;;;;;5069967;27;92941;-67
2022/04/25 15:01:51;;;;;;;3.47;2.60;;;22.70;42.30;;;;;;5074110;27;89968;-66
2022/04/25 15:04:20;;;;;;;6.50;2.83;;;22.70;42.30;;;;;;5066271;27;88393;-66
2022/04/25 15:06:49;;;;;;;2.40;1.70;;;22.70;42.20;;;;;;5066489;27;88547;-68
2022/04/25 15:09:19;;;;;;;3.50;2.33;;;22.70;42.10;;;;;;5047019;27;95599;-68
2022/04/25 15:11:47;;;;;;;3.40;2.57;;;22.70;42.10;;;;;;5076177;27;89860;-67
2022/04/25 15:14:15;;;;;;;3.67;2.60;;;22.70;42.10;;;;;;5066009;27;88493;-67
2022/04/25 15:16:43;;;;;;;3.80;2.47;;;22.70;42.00;;;;;;5062971;27;88786;-68
2022/04/25 15:19:12;;;;;;;2.93;2.17;;;22.70;42.10;;;;;;5082891;27;90118;-70
2022/04/25 15:21:39;;;;;;;5.40;2.40;;;22.70;42.00;;;;;;5063604;27;89185;-69
2022/04/25 15:24:08;;;;;;;4.00;2.37;;;22.70;42.70;;;;;;5066822;27;90487;-69
2022/04/25 15:26:38;;;;;;;3.73;2.50;;;22.70;42.10;;;;;;5071021;27;88914;-69
2022/04/25 15:29:06;;;;;;;4.80;2.60;;;22.70;42.00;;;;;;5069039;27;90046;-69
2022/04/25 15:31:34;;;;;;;3.93;2.60;;;22.70;42.10;;;;;;5064305;27;89719;-66
2022/04/25 15:34:02;;;;;;;3.37;2.17;;;22.70;42.00;;;;;;5082089;27;88404;-66
2022/04/25 15:36:30;;;;;;;3.77;2.47;;;22.70;42.00;;;;;;5072198;27;88551;-66
2022/04/25 15:38:58;;;;;;;4.03;2.43;;;22.70;42.00;;;;;;5057532;27;90970;-66
2022/04/25 15:41:26;;;;;;;4.27;2.53;;;22.70;42.00;;;;;;5063562;27;89717;-66
2022/04/25 15:43:56;;;;;;;2.60;2.30;;;22.70;42.00;;;;;;5063755;27;88554;-67
2022/04/25 15:46:24;;;;;;;3.83;2.43;;;22.70;41.90;;;;;;5071910;27;88535;-66
2022/04/25 15:48:52;;;;;;;5.40;2.57;;;22.60;41.90;;;;;;5071841;27;90240;-66
2022/04/25 15:51:20;;;;;;;6.17;2.70;;;22.60;41.90;;;;;;5063852;27;89428;-67
2022/04/25 15:59:34;;;;;;;2.77;1.67;;;22.70;42.00;;;;;;5046311;27;92483;-66
2022/04/25 16:02:02;;;;;;;5.07;2.60;;;22.70;42.00;;;;;;5068502;27;90084;-66
2022/04/25 16:04:30;;;;;;;4.03;2.83;;;22.70;42.10;;;;;;5052223;27;88460;-66
2022/04/25 16:06:59;;;;;;;8.90;3.33;;;22.70;42.00;;;;;;5066712;27;88395;-66
2022/04/25 16:09:27;;;;;;;17.20;6.83;;;22.70;42.10;;;;;;5082177;27;90754;-66
2022/04/25 16:11:56;;;;;;;25.83;10.67;;;22.70;42.10;;;;;;5070973;27;88530;-66
2022/04/25 16:14:24;;;;;;;42.53;17.70;;;22.80;42.20;;;;;;5062519;27;88284;-66
2022/04/25 16:16:53;;;;;;;54.27;19.20;;;22.80;42.20;;;;;;5078416;27;88967;-66
2022/04/25 16:19:28;;;;;;;55.50;20.37;;;22.80;42.20;;;;;;5073420;27;90578;-66
2022/04/25 16:21:56;;;;;;;45.53;18.53;;;22.80;42.20;;;;;;5062522;27;89141;-66
2022/04/25 16:24:24;;;;;;;50.07;18.23;;;22.80;42.20;;;;;;5061893;27;88645;-66
2022/04/25 16:26:52;;;;;;;31.23;15.07;;;22.80;42.20;;;;;;5077384;27;88484;-66
2022/04/25 16:29:20;;;;;;;28.30;13.47;;;22.80;42.10;;;;;;5059769;27;90736;-67
2022/04/25 16:31:49;;;;;;;34.80;14.53;;;22.80;42.10;;;;;;5075993;27;93034;-66
2022/04/25 16:34:19;;;;;;;35.63;14.77;;;22.80;42.20;;;;;;5079834;27;88179;-66
2022/04/25 16:36:47;;;;;;;29.70;12.40;;;22.80;42.10;;;;;;5077112;27;88677;-67
2022/04/25 16:39:18;;;;;;;27.97;10.87;;;22.80;42.10;;;;;;5072984;27;89922;-67
2022/04/25 16:41:46;;;;;;;26.07;10.83;;;22.70;42.00;;;;;;5082881;27;90017;-66
2022/04/25 16:44:16;;;;;;;31.90;11.17;;;22.70;42.10;;;;;;5069947;27;88775;-73
2022/04/25 16:46:46;;;;;;;13.87;8.33;;;22.70;42.00;;;;;;5060506;27;88589;-66
2022/04/25 16:49:14;;;;;;;20.37;9.83;;;22.70;42.10;;;;;;5073043;27;90698;-67
2022/04/25 16:51:43;;;;;;;17.03;9.10;;;22.70;42.70;;;;;;5083384;27;92016;-66
2022/04/25 16:54:11;;;;;;;21.00;10.37;;;22.70;42.10;;;;;;5081490;27;88544;-67
2022/04/25 16:56:40;;;;;;;16.43;9.47;;;22.80;42.20;;;;;;5082558;27;88948;-66
2022/04/25 16:59:08;;;;;;;34.00;14.90;;;22.80;42.30;;;;;;5076807;27;93839;-67
2022/04/25 17:01:39;;;;;;;357.93;124.00;;;22.80;42.40;;;;;;5070784;27;88850;-67
2022/04/25 17:04:08;;;;;;;365.20;125.87;;;22.90;42.60;;;;;;5055137;27;88530;-67
2022/04/25 17:06:36;;;;;;;224.17;78.87;;;23.00;42.80;;;;;;5061095;27;88341;-67
2022/04/25 17:09:05;;;;;;;173.47;66.70;;;23.00;42.80;;;;;;5061117;27;90235;-67
2022/04/25 17:11:34;;;;;;;149.63;54.60;;;23.00;42.80;;;;;;5063816;27;89980;-66
2022/04/25 17:14:03;;;;;;;150.80;52.67;;;23.00;42.80;;;;;;5066934;27;89732;-67
2022/04/25 17:16:31;;;;;;;122.67;46.80;;;23.00;42.90;;;;;;5062666;27;89540;-66
2022/04/25 17:18:59;;;;;;;83.43;33.83;;;23.00;42.90;;;;;;5061508;27;93391;-66
2022/04/25 17:21:27;;;;;;;88.93;35.03;;;23.00;43.50;;;;;;5061478;27;90164;-67
2022/04/25 17:23:55;;;;;;;83.33;33.50;;;23.00;42.90;;;;;;5056983;27;88518;-68
2022/04/25 17:26:24;;;;;;;75.00;32.73;;;23.00;42.90;;;;;;5061450;27;88510;-67
2022/04/25 17:28:53;;;;;;;81.63;32.23;;;23.00;42.90;;;;;;5048864;27;90713;-66
2022/04/25 17:37:06;;;;;;;60.07;26.33;;;23.00;42.80;;;;;;5054738;27;88525;-66
